Time;durP1;ratioP1;P1;durP2;ratioP2;P2;SDS_P1;SDS_P2;PMS_P1;PMS_P2;Temp;Humidity;BMP_temperature;BMP_pressure;BME280_temperature;BME280_humidity;BME280_pressure;Samples;Min_cycle;Max_cycle;Signal;HPM_P1;HPM_P2
2021/04/26 00:00:57;;;;;;;;;;;;;;;;;;5035900;28;20488;-89
2021/04/26 00:03:25;;;;;;;9.60;3.47;;;;;;;;;;5018749;28;20334;-88
2021/04/26 00:05:53;;;;;;;9.05;3.78;;;;;;;;;;5035475;28;20264;-90
2021/04/26 00:08:18;;;;;;;10.00;4.00;;;;;;;;;;5036191;28;20017;-89
2021/04/26 00:10:45;;;;;;;8.10;3.55;;;;;;;;;;5036133;28;20022;-91
2021/04/26 00:13:11;;;;;;;10.02;4.03;;;;;;;;;;5035787;28;20025;-89
2021/04/26 00:15:36;;;;;;;10.07;3.40;;;;;;;;;;5036258;28;20135;-92
2021/04/26 00:18:01;;;;;;;6.75;3.75;;;;;;;;;;5035756;28;20363;-90
2021/04/26 00:20:30;;;;;;;11.30;4.05;;;;;;;;;;5034776;28;20025;-88
2021/04/26 00:22:57;;;;;;;8.10;3.92;;;;;;;;;;5030462;28;20156;-89
2021/04/26 00:25:22;;;;;;;8.85;4.25;;;;;;;;;;5034526;28;20320;-88
2021/04/26 00:27:47;;;;;;;7.88;4.28;;;;;;;;;;5013432;28;20041;-88
2021/04/26 00:30:13;;;;;;;;;;;;;;;;;;5015823;28;20175;-89
2021/04/26 00:32:38;;;;;;;8.20;4.03;;;;;;;;;;5014612;28;19965;-89
2021/04/26 00:35:03;;;;;;;;;;;;;;;;;;5016012;28;20269;-89
2021/04/26 00:37:30;;;;;;;7.80;4.13;;;;;;;;;;5024952;28;19915;-88
2021/04/26 00:39:58;;;;;;;10.52;3.85;;;;;;;;;;5035673;28;20371;-87
2021/04/26 00:42:23;;;;;;;11.80;5.32;;;;;;;;;;5017585;28;20026;-88
2021/04/26 00:44:51;;;;;;;10.57;3.92;;;;;;;;;;5034822;28;20017;-88
2021/04/26 00:47:16;;;;;;;13.02;4.50;;;;;;;;;;5016889;28;20021;-88
2021/04/26 00:49:46;;;;;;;9.05;4.28;;;;;;;;;;5034384;28;20030;-89
2021/04/26 00:52:11;;;;;;;12.35;4.30;;;;;;;;;;5035072;28;20021;-89
2021/04/26 00:54:41;;;;;;;10.45;4.20;;;;;;;;;;5028176;28;20439;-89
2021/04/26 00:57:06;;;;;;;7.18;4.07;;;;;;;;;;5019303;28;20042;-89
2021/04/26 00:59:33;;;;;;;13.02;4.40;;;;;;;;;;5016141;28;20462;-89
2021/04/26 01:01:58;;;;;;;11.63;4.80;;;;;;;;;;5039739;28;20010;-88
2021/04/26 01:04:24;;;;;;;14.15;4.75;;;;;;;;;;5040144;28;20022;-88
2021/04/26 01:06:49;;;;;;;9.85;4.05;;;;;;;;;;5039447;28;20346;-87
2021/04/26 01:09:14;;;;;;;;;;;;;;;;;;5035956;28;20098;-87
2021/04/26 01:11:58;;;;;;;13.80;4.85;;;;;;;;;;5035472;28;19970;-90
2021/04/26 01:14:42;;;;;;;10.23;4.20;;;;;;;;;;5035076;28;20028;-92
2021/04/26 01:17:11;;;;;;;11.07;4.30;;;;;;;;;;5037322;28;20030;-90
2021/04/26 01:19:54;;;;;;;8.90;4.63;;;;;;;;;;5025787;28;20029;-91
2021/04/26 01:22:31;;;;;;;10.73;4.53;;;;;;;;;;5035067;28;20021;-90
2021/04/26 01:25:11;;;;;;;13.40;4.45;;;;;;;;;;5018092;28;20117;-91
2021/04/26 01:27:55;;;;;;;14.15;5.40;;;;;;;;;;5034529;28;20404;-90
2021/04/26 01:30:20;;;;;;;11.48;4.70;;;;;;;;;;5035535;28;20025;-88
2021/04/26 01:32:53;;;;;;;13.10;5.22;;;;;;;;;;5034361;28;20086;-87
2021/04/26 01:35:19;;;;;;;12.05;5.10;;;;;;;;;;5023693;28;20394;-88
2021/04/26 01:37:47;;;;;;;10.45;5.07;;;;;;;;;;5034913;28;20025;-92
2021/04/26 01:40:13;;;;;;;12.23;4.97;;;;;;;;;;5035261;28;20044;-89
2021/04/26 01:42:41;;;;;;;9.02;4.97;;;;;;;;;;5030555;28;20100;-90
2021/04/26 01:45:07;;;;;;;9.40;4.90;;;;;;;;;;5031355;28;20036;-90
2021/04/26 01:47:33;;;;;;;11.60;5.00;;;;;;;;;;5033512;28;20092;-88
2021/04/26 01:49:58;;;;;;;12.77;5.00;;;;;;;;;;5034581;28;20113;-88
2021/04/26 01:52:24;;;;;;;10.00;4.75;;;;;;;;;;5034141;28;20061;-88
2021/04/26 01:54:50;;;;;;;12.23;5.70;;;;;;;;;;5033204;28;20036;-88
2021/04/26 01:57:15;;;;;;;8.52;4.82;;;;;;;;;;5032440;28;20209;-90
2021/04/26 01:59:41;;;;;;;8.57;4.90;;;;;;;;;;5034026;28;20113;-89
2021/04/26 02:02:06;;;;;;;;;;;;;;;;;;5034013;28;20378;-89
2021/04/26 02:04:32;;;;;;;10.45;5.45;;;;;;;;;;5034391;28;19996;-89
2021/04/26 02:07:00;;;;;;;13.77;5.43;;;;;;;;;;5034646;28;20029;-88
2021/04/26 02:09:31;;;;;;;11.70;4.97;;;;;;;;;;5034366;28;20052;-89
2021/04/26 02:11:57;;;;;;;17.00;5.90;;;;;;;;;;5033993;28;20037;-89
2021/04/26 02:14:22;;;;;;;9.05;5.32;;;;;;;;;;5033991;28;20026;-89
2021/04/26 02:16:48;;;;;;;8.90;4.78;;;;;;;;;;5034440;28;20025;-89
2021/04/26 02:19:13;;;;;;;12.70;5.50;;;;;;;;;;5015617;28;20037;-89
2021/04/26 02:21:39;;;;;;;11.65;5.32;;;;;;;;;;5034111;28;20346;-88
2021/04/26 02:24:04;;;;;;;8.85;5.05;;;;;;;;;;5015731;28;20029;-88
2021/04/26 02:26:29;;;;;;;;;;;;;;;;;;5023667;28;20057;-90
2021/04/26 02:28:55;;;;;;;11.93;5.10;;;;;;;;;;5030513;28;19909;-90
2021/04/26 02:31:23;;;;;;;8.52;5.05;;;;;;;;;;5033033;28;20041;-90
2021/04/26 02:33:56;;;;;;;10.02;4.63;;;;;;;;;;5033105;28;20021;-91
2021/04/26 02:36:25;;;;;;;7.93;5.00;;;;;;;;;;5016400;28;20017;-88
2021/04/26 02:38:51;;;;;;;10.82;5.05;;;;;;;;;;5016018;28;20434;-89
2021/04/26 02:41:24;;;;;;;10.95;5.07;;;;;;;;;;5016669;28;20036;-88
2021/04/26 02:43:59;;;;;;;14.93;5.63;;;;;;;;;;5033281;28;20453;-87
2021/04/26 02:46:26;;;;;;;11.52;5.22;;;;;;;;;;5033413;28;20049;-89
2021/04/26 02:48:54;;;;;;;11.10;5.05;;;;;;;;;;5033050;28;20358;-88
2021/04/26 02:51:19;;;;;;;9.55;5.07;;;;;;;;;;5032534;28;20078;-88
2021/04/26 02:53:45;;;;;;;11.05;4.93;;;;;;;;;;5032496;28;20095;-89
2021/04/26 02:56:14;;;;;;;12.02;5.20;;;;;;;;;;5020837;28;20168;-88
2021/04/26 02:58:39;;;;;;;11.88;5.07;;;;;;;;;;5013484;28;20095;-88
2021/04/26 03:01:10;;;;;;;7.75;4.93;;;;;;;;;;5016509;28;20130;-89
2021/04/26 03:03:39;;;;;;;10.30;5.25;;;;;;;;;;5033785;28;20041;-90
2021/04/26 03:06:05;;;;;;;9.75;5.13;;;;;;;;;;5034237;28;20033;-90
2021/04/26 03:08:32;;;;;;;12.85;5.43;;;;;;;;;;5037685;28;20346;-90
2021/04/26 03:11:01;;;;;;;12.15;5.80;;;;;;;;;;5036612;28;20037;-89
2021/04/26 03:13:29;;;;;;;12.07;5.97;;;;;;;;;;5037301;28;20033;-89
2021/04/26 03:15:54;;;;;;;11.70;5.30;;;;;;;;;;5037582;28;20022;-90
2021/04/26 03:18:20;;;;;;;10.27;5.47;;;;;;;;;;5020298;28;20025;-89
2021/04/26 03:20:45;;;;;;;13.18;5.65;;;;;;;;;;5036636;28;20037;-90
2021/04/26 03:23:11;;;;;;;;;;;;;;;;;;5020173;28;20046;-89
2021/04/26 03:25:36;;;;;;;9.07;4.75;;;;;;;;;;5037130;28;19905;-91
2021/04/26 03:28:02;;;;;;;12.20;5.32;;;;;;;;;;5034042;28;20041;-91
2021/04/26 03:30:27;;;;;;;10.95;5.32;;;;;;;;;;5027873;28;20056;-90
2021/04/26 03:32:53;;;;;;;10.38;5.15;;;;;;;;;;5034992;28;20070;-90
2021/04/26 03:35:22;;;;;;;11.65;5.43;;;;;;;;;;5036797;28;20351;-89
2021/04/26 03:37:48;;;;;;;11.95;5.18;;;;;;;;;;5034644;28;20029;-89
2021/04/26 03:40:21;;;;;;;10.13;5.03;;;;;;;;;;5035230;28;20122;-88
2021/04/26 03:42:47;;;;;;;8.98;5.00;;;;;;;;;;5018332;28;20044;-89
2021/04/26 03:45:15;;;;;;;10.25;5.15;;;;;;;;;;5036769;28;20017;-89
2021/04/26 03:47:40;;;;;;;11.48;5.28;;;;;;;;;;5036068;28;20116;-88
2021/04/26 03:50:06;;;;;;;9.07;4.55;;;;;;;;;;5019576;28;20565;-89
2021/04/26 03:52:31;;;;;;;;;;;;;;;;;;5037018;28;20029;-88
2021/04/26 03:54:56;;;;;;;11.88;5.15;;;;;;;;;;5035796;28;19991;-89
2021/04/26 03:57:21;;;;;;;11.45;5.75;;;;;;;;;;5036655;28;20045;-90
2021/04/26 03:59:49;;;;;;;8.82;5.18;;;;;;;;;;5036484;28;20071;-89
2021/04/26 04:02:16;;;;;;;12.18;5.57;;;;;;;;;;5036412;28;20036;-89
2021/04/26 04:04:41;;;;;;;10.43;5.38;;;;;;;;;;5025930;28;20017;-90
2021/04/26 04:07:06;;;;;;;12.10;4.88;;;;;;;;;;5016616;28;20021;-88
2021/04/26 04:09:32;;;;;;;12.85;5.47;;;;;;;;;;5016843;28;20375;-89
2021/04/26 04:11:59;;;;;;;12.07;5.72;;;;;;;;;;5016798;28;20383;-89
2021/04/26 04:14:25;;;;;;;10.00;5.13;;;;;;;;;;5031604;28;20017;-89
2021/04/26 04:16:52;;;;;;;11.50;5.35;;;;;;;;;;5041609;28;20029;-88
2021/04/26 04:19:17;;;;;;;8.48;5.63;;;;;;;;;;5041845;28;20144;-90
2021/04/26 04:21:42;;;;;;;12.60;5.60;;;;;;;;;;5040064;28;20363;-91
2021/04/26 04:24:08;;;;;;;13.38;5.55;;;;;;;;;;5040330;28;20104;-89
2021/04/26 04:26:33;;;;;;;9.45;5.65;;;;;;;;;;5047413;28;20053;-88
2021/04/26 04:28:58;;;;;;;13.43;6.28;;;;;;;;;;5033065;28;20077;-89
2021/04/26 04:31:24;;;;;;;;;;;;;;;;;;5027979;28;20048;-88
2021/04/26 04:33:49;;;;;;;12.35;6.90;;;;;;;;;;5030140;28;20008;-90
2021/04/26 04:36:16;;;;;;;9.07;6.10;;;;;;;;;;5033312;28;20077;-90
2021/04/26 04:38:41;;;;;;;14.27;7.00;;;;;;;;;;5013575;28;20025;-90
2021/04/26 04:41:07;;;;;;;11.98;6.57;;;;;;;;;;5019401;28;20030;-90
2021/04/26 04:43:32;;;;;;;11.65;6.97;;;;;;;;;;5035274;28;20017;-90
2021/04/26 04:45:57;;;;;;;10.73;6.57;;;;;;;;;;5036434;28;20128;-90
2021/04/26 04:48:22;;;;;;;10.63;6.53;;;;;;;;;;5036319;28;20017;-88
2021/04/26 04:50:48;;;;;;;9.52;6.45;;;;;;;;;;5014595;28;20354;-88
2021/04/26 04:53:13;;;;;;;;;;;;;;;;;;5035863;28;20017;-78
2021/04/26 04:55:38;;;;;;;11.27;6.32;;;;;;;;;;5033588;28;19977;-75
2021/04/26 04:58:03;;;;;;;12.85;6.22;;;;;;;;;;5032288;28;20070;-76
2021/04/26 05:00:28;;;;;;;14.35;6.57;;;;;;;;;;5007386;28;21707;-75
2021/04/26 05:02:54;;;;;;;11.93;5.82;;;;;;;;;;5034888;28;20460;-75
2021/04/26 05:05:19;;;;;;;9.02;6.13;;;;;;;;;;5032439;28;20052;-75
2021/04/26 05:07:44;;;;;;;;;;;;;;;;;;5037252;28;20029;-76
2021/04/26 05:10:10;;;;;;;10.85;6.68;;;;;;;;;;5036963;28;19988;-75
2021/04/26 05:12:35;;;;;;;13.00;7.05;;;;;;;;;;5015651;28;20041;-76
2021/04/26 05:15:01;;;;;;;;;;;;;;;;;;5034824;28;20052;-75
2021/04/26 05:17:26;;;;;;;16.50;7.45;;;;;;;;;;5034461;28;20326;-75
2021/04/26 05:19:54;;;;;;;15.88;7.35;;;;;;;;;;5023147;28;20041;-75
2021/04/26 05:22:19;;;;;;;13.48;7.13;;;;;;;;;;5022031;28;20025;-75
2021/04/26 05:24:47;;;;;;;15.57;6.93;;;;;;;;;;5031635;28;20587;-75
2021/04/26 05:27:13;;;;;;;12.57;7.05;;;;;;;;;;5031657;28;20022;-76
2021/04/26 05:29:38;;;;;;;14.88;6.45;;;;;;;;;;5017358;28;20361;-77
2021/04/26 05:32:06;;;;;;;12.15;6.50;;;;;;;;;;5032723;28;20425;-77
2021/04/26 05:34:32;;;;;;;14.80;5.45;;;;;;;;;;5033923;28;20025;-77
2021/04/26 05:36:57;;;;;;;12.75;5.85;;;;;;;;;;5032958;28;20037;-75
2021/04/26 05:39:24;;;;;;;13.63;5.85;;;;;;;;;;5038671;28;20026;-78
2021/04/26 05:41:49;;;;;;;13.15;5.72;;;;;;;;;;5033154;28;20116;-75
2021/04/26 05:44:15;;;;;;;16.20;5.38;;;;;;;;;;5003396;28;20101;-76
2021/04/26 05:46:40;;;;;;;8.60;4.43;;;;;;;;;;4996883;28;20128;-75
2021/04/26 05:49:05;;;;;;;9.60;4.97;;;;;;;;;;5014462;28;20026;-76
2021/04/26 05:51:30;;;;;;;;;;;;;;;;;;5030243;28;20018;-76
2021/04/26 05:53:58;;;;;;;12.85;4.70;;;;;;;;;;5020525;28;19992;-76
2021/04/26 05:56:26;;;;;;;14.10;5.05;;;;;;;;;;5014602;28;20263;-76
2021/04/26 05:58:51;;;;;;;14.68;5.07;;;;;;;;;;5042520;28;20096;-77
2021/04/26 06:01:19;;;;;;;10.15;5.15;;;;;;;;;;5035656;28;20163;-76
2021/04/26 06:03:44;;;;;;;10.90;5.22;;;;;;;;;;5032472;28;20431;-76
2021/04/26 06:06:09;;;;;;;12.45;4.30;;;;;;;;;;5027658;28;20057;-76
2021/04/26 06:08:35;;;;;;;12.13;4.38;;;;;;;;;;5015079;28;20025;-77
2021/04/26 06:11:00;;;;;;;9.15;4.47;;;;;;;;;;5032139;28;20030;-77
2021/04/26 06:13:25;;;;;;;10.05;4.13;;;;;;;;;;5033126;28;20013;-77
2021/04/26 06:15:51;;;;;;;11.73;4.43;;;;;;;;;;5032215;28;20099;-76
2021/04/26 06:18:16;;;;;;;;;;;;;;;;;;5033475;28;20153;-77
2021/04/26 06:20:42;;;;;;;11.32;4.05;;;;;;;;;;5032659;28;19951;-76
2021/04/26 06:23:08;;;;;;;9.80;4.38;;;;;;;;;;5033072;28;20385;-77
2021/04/26 06:25:33;;;;;;;9.05;3.47;;;;;;;;;;5015884;28;20025;-77
2021/04/26 06:27:59;;;;;;;7.32;3.10;;;;;;;;;;5032454;28;20043;-76
2021/04/26 06:30:24;;;;;;;4.85;2.80;;;;;;;;;;5016105;28;20067;-76
2021/04/26 06:32:49;;;;;;;9.32;3.40;;;;;;;;;;5031397;28;20025;-76
2021/04/26 06:35:15;;;;;;;;;;;;;;;;;;5030762;28;20433;-76
2021/04/26 06:37:40;;;;;;;5.78;2.97;;;;;;;;;;5019542;28;20341;-77
2021/04/26 06:40:05;;;;;;;7.75;3.13;;;;;;;;;;5014456;28;20030;-76
2021/04/26 06:42:31;;;;;;;5.65;2.75;;;;;;;;;;5037235;28;20453;-77
2021/04/26 06:44:56;;;;;;;7.13;3.00;;;;;;;;;;5043209;28;20062;-77
2021/04/26 06:47:21;;;;;;;6.65;2.75;;;;;;;;;;5024887;28;20109;-77
2021/04/26 06:49:46;;;;;;;;;;;;;;;;;;5032146;28;20022;-77
2021/04/26 06:55:22;;;;;;;5.53;2.70;;;;;;;;;;5673476;22;20095;-70
2021/04/26 06:57:50;;;;;;;6.53;2.75;;;;;;;;;;5063270;23;20033;-76
2021/04/26 07:00:16;;;;;;;6.07;2.70;;;;;;;;;;5024822;28;20528;-76
2021/04/26 07:02:42;;;;;;;6.18;2.53;;;;;;;;;;5025071;28;20345;-76
2021/04/26 07:05:08;;;;;;;6.65;2.63;;;;;;;;;;5023489;28;20026;-77
2021/04/26 07:07:34;;;;;;;4.70;2.63;;;;;;;;;;5027054;28;20017;-77
2021/04/26 07:10:02;;;;;;;8.70;2.75;;;;;;;;;;5031459;28;20091;-77
2021/04/26 07:12:30;;;;;;;6.28;2.38;;;;;;;;;;5014441;28;20379;-77
2021/04/26 07:14:55;;;;;;;7.13;2.45;;;;;;;;;;5030228;28;20420;-77
2021/04/26 07:17:22;;;;;;;5.35;2.40;;;;;;;;;;5032175;28;20109;-77
2021/04/26 07:19:48;;;;;;;6.05;2.20;;;;;;;;;;5027709;28;20025;-77
2021/04/26 07:22:13;;;;;;;4.93;2.45;;;;;;;;;;5028988;28;20021;-77
2021/04/26 07:24:38;;;;;;;5.78;2.65;;;;;;;;;;5015087;28;20018;-78
2021/04/26 07:27:03;;;;;;;6.05;2.50;;;;;;;;;;5032796;28;20143;-77
2021/04/26 07:29:31;;;;;;;5.28;2.55;;;;;;;;;;5033048;28;20484;-77
2021/04/26 07:31:56;;;;;;;7.97;2.55;;;;;;;;;;5030774;28;20025;-76
2021/04/26 07:34:24;;;;;;;10.07;2.67;;;;;;;;;;5026343;28;20025;-77
2021/04/26 07:36:49;;;;;;;6.75;2.28;;;;;;;;;;5027498;28;20064;-76
2021/04/26 07:39:15;;;;;;;4.70;2.28;;;;;;;;;;5025106;28;20101;-76
2021/04/26 07:41:40;;;;;;;4.97;2.15;;;;;;;;;;5031362;28;20028;-76
2021/04/26 07:44:06;;;;;;;4.43;2.00;;;;;;;;;;5030062;28;20063;-78
2021/04/26 07:46:33;;;;;;;4.65;2.15;;;;;;;;;;5032404;28;20024;-76
2021/04/26 07:48:58;;;;;;;4.63;2.10;;;;;;;;;;5024902;28;20026;-75
2021/04/26 07:51:24;;;;;;;3.60;1.80;;;;;;;;;;5031637;28;20099;-75
2021/04/26 07:53:49;;;;;;;5.60;2.00;;;;;;;;;;5029705;28;20021;-76
2021/04/26 07:56:14;;;;;;;6.28;2.03;;;;;;;;;;5016779;28;20051;-77
2021/04/26 07:58:42;;;;;;;6.63;2.28;;;;;;;;;;5019979;28;20100;-77
2021/04/26 08:01:09;;;;;;;4.53;2.00;;;;;;;;;;5026749;28;20079;-76
2021/04/26 08:03:37;;;;;;;4.03;2.15;;;;;;;;;;5035169;28;20017;-76
2021/04/26 08:06:04;;;;;;;5.90;2.17;;;;;;;;;;5015131;28;20366;-76
2021/04/26 08:08:29;;;;;;;7.13;1.88;;;;;;;;;;5032128;28;20300;-77
2021/04/26 08:10:54;;;;;;;5.00;1.90;;;;;;;;;;5032673;28;20018;-76
2021/04/26 08:13:20;;;;;;;7.82;2.00;;;;;;;;;;5035427;28;20013;-76
2021/04/26 08:15:45;;;;;;;3.72;2.05;;;;;;;;;;5018348;28;20025;-77
2021/04/26 08:18:12;;;;;;;3.83;1.77;;;;;;;;;;5035132;28;20126;-77
2021/04/26 08:20:37;;;;;;;6.55;2.20;;;;;;;;;;5017771;28;20606;-77
2021/04/26 08:23:03;;;;;;;3.80;1.90;;;;;;;;;;5034798;28;20034;-77
2021/04/26 08:25:29;;;;;;;5.65;2.20;;;;;;;;;;5034417;28;20079;-75
2021/04/26 08:27:55;;;;;;;3.45;2.00;;;;;;;;;;5035458;28;20059;-75
2021/04/26 08:30:20;;;;;;;4.30;2.00;;;;;;;;;;5035285;28;20021;-75
2021/04/26 08:32:46;;;;;;;3.22;1.83;;;;;;;;;;5018329;28;20025;-75
2021/04/26 08:35:11;;;;;;;2.97;1.63;;;;;;;;;;5034647;28;20092;-74
2021/04/26 08:37:36;;;;;;;2.97;1.20;;;;;;;;;;5033613;28;20078;-74
2021/04/26 08:40:02;;;;;;;2.30;1.30;;;;;;;;;;5032600;28;20121;-73
2021/04/26 08:42:27;;;;;;;3.67;1.45;;;;;;;;;;5035555;28;20032;-76
2021/04/26 08:44:56;;;;;;;2.75;1.20;;;;;;;;;;5035363;28;20018;-75
2021/04/26 08:47:23;;;;;;;4.03;1.40;;;;;;;;;;5035318;28;20021;-74
2021/04/26 08:49:48;;;;;;;3.90;1.40;;;;;;;;;;5017151;28;20408;-74
2021/04/26 08:52:14;;;;;;;2.60;1.45;;;;;;;;;;5035154;28;20034;-74
2021/04/26 08:54:39;;;;;;;2.17;1.50;;;;;;;;;;5034853;28;20063;-75
2021/04/26 08:57:05;;;;;;;3.88;1.40;;;;;;;;;;5033927;28;20049;-73
2021/04/26 08:59:30;;;;;;;2.60;1.50;;;;;;;;;;5034119;28;20057;-74
2021/04/26 09:02:03;;;;;;;3.72;1.30;;;;;;;;;;5017411;28;20013;-73
2021/04/26 09:04:28;;;;;;;3.72;1.55;;;;;;;;;;5035251;28;20083;-75
2021/04/26 09:07:02;;;;;;;3.70;1.33;;;;;;;;;;5034085;28;20033;-74
2021/04/26 09:09:38;;;;;;;2.70;1.45;;;;;;;;;;5025508;28;20025;-75
2021/04/26 09:12:04;;;;;;;2.95;1.38;;;;;;;;;;5017094;28;20026;-75
2021/04/26 09:14:35;;;;;;;2.42;1.23;;;;;;;;;;5034299;28;20036;-75
2021/04/26 09:17:27;;;;;;;3.33;1.60;;;;;;;;;;5031921;28;20089;-75
2021/04/26 09:19:53;;;;;;;2.80;1.48;;;;;;;;;;5003317;28;20398;-75
2021/04/26 09:22:57;;;;;;;2.53;1.50;;;;;;;;;;5029879;28;20069;-75
2021/04/26 09:25:24;;;;;;;3.00;1.70;;;;;;;;;;4954256;28;20037;-75
2021/04/26 09:27:55;;;;;;;3.30;1.45;;;;;;;;;;4953586;28;20055;-75
2021/04/26 09:30:41;;;;;;;3.10;1.33;;;;;;;;;;4995406;28;20037;-76
2021/04/26 09:33:40;;;;;;;2.55;1.40;;;;;;;;;;5034140;28;20017;-75
2021/04/26 09:36:16;;;;;;;4.82;1.70;;;;;;;;;;5033950;28;20108;-75
2021/04/26 09:38:44;;;;;;;4.07;1.85;;;;;;;;;;5026133;28;20025;-75
2021/04/26 09:41:09;;;;;;;3.67;1.67;;;;;;;;;;5028415;28;20021;-76
2021/04/26 09:43:34;;;;;;;3.03;1.80;;;;;;;;;;5032545;28;20031;-77
2021/04/26 09:45:59;;;;;;;5.70;1.80;;;;;;;;;;5018883;28;20088;-77
2021/04/26 09:48:27;;;;;;;3.55;1.70;;;;;;;;;;5022995;28;20021;-77
2021/04/26 09:50:56;;;;;;;3.75;1.60;;;;;;;;;;5033817;28;20359;-78
2021/04/26 09:53:25;;;;;;;5.25;1.50;;;;;;;;;;5033966;28;20079;-77
2021/04/26 09:55:51;;;;;;;2.47;1.50;;;;;;;;;;5030941;28;20045;-78
2021/04/26 09:58:16;;;;;;;6.45;1.60;;;;;;;;;;5039258;28;20477;-77
2021/04/26 10:00:43;;;;;;;3.42;1.40;;;;;;;;;;5053958;28;20021;-78
2021/04/26 10:03:12;;;;;;;3.83;1.60;;;;;;;;;;5046716;28;20488;-76
2021/04/26 10:05:40;;;;;;;5.65;1.63;;;;;;;;;;5030750;28;20048;-75
2021/04/26 10:08:06;;;;;;;3.70;1.50;;;;;;;;;;5016083;28;20018;-75
2021/04/26 10:10:32;;;;;;;3.58;1.60;;;;;;;;;;5033538;28;20024;-75
2021/04/26 10:12:59;;;;;;;3.25;1.48;;;;;;;;;;5033639;28;20362;-75
2021/04/26 10:15:26;;;;;;;2.58;1.50;;;;;;;;;;5033343;28;20026;-75
2021/04/26 10:17:52;;;;;;;2.50;1.20;;;;;;;;;;5034033;28;20024;-75
2021/04/26 10:20:32;;;;;;;8.70;1.48;;;;;;;;;;5015465;28;20033;-76
2021/04/26 10:22:57;;;;;;;4.78;1.50;;;;;;;;;;5033957;28;20445;-75
2021/04/26 10:25:36;;;;;;;2.45;1.13;;;;;;;;;;5033329;28;20025;-75
2021/04/26 10:28:21;;;;;;;4.07;1.40;;;;;;;;;;5034063;28;20022;-76
2021/04/26 10:31:18;;;;;;;2.80;1.17;;;;;;;;;;5033924;28;20112;-75
2021/04/26 10:33:55;;;;;;;5.07;1.45;;;;;;;;;;5017532;28;20496;-75
2021/04/26 10:36:57;;;;;;;4.07;1.20;;;;;;;;;;5033411;28;20026;-75
2021/04/26 10:39:24;;;;;;;2.70;1.13;;;;;;;;;;4954029;29;20027;-77
2021/04/26 10:41:53;;;;;;;4.18;1.95;;;;;;;;;;5016516;28;20057;-78
2021/04/26 10:44:47;;;;;;;1.95;1.27;;;;;;;;;;5033277;28;20081;-76
2021/04/26 10:47:21;;;;;;;2.63;1.20;;;;;;;;;;5032830;28;20025;-76
2021/04/26 10:49:48;;;;;;;6.68;1.10;;;;;;;;;;5013086;28;20112;-76
2021/04/26 10:52:29;;;;;;;1.95;1.08;;;;;;;;;;5014199;28;20397;-76
2021/04/26 10:54:58;;;;;;;3.97;1.10;;;;;;;;;;5030514;28;20017;-77
2021/04/26 10:57:30;;;;;;;4.60;1.05;;;;;;;;;;5047617;28;20499;-77
2021/04/26 10:59:55;;;;;;;2.55;0.90;;;;;;;;;;5049218;28;20370;-76
2021/04/26 11:02:33;;;;;;;3.63;1.00;;;;;;;;;;5033367;28;20017;-77
2021/04/26 11:05:18;;;;;;;2.08;1.00;;;;;;;;;;5033719;28;20071;-76
2021/04/26 11:07:51;;;;;;;3.42;1.08;;;;;;;;;;5029267;28;20024;-77
2021/04/26 11:10:29;;;;;;;2.85;1.08;;;;;;;;;;5033162;28;20024;-77
2021/04/26 11:12:58;;;;;;;2.13;0.90;;;;;;;;;;5031845;28;20405;-77
2021/04/26 11:15:24;;;;;;;1.83;0.90;;;;;;;;;;5015270;28;20131;-77
2021/04/26 11:17:50;;;;;;;2.15;0.90;;;;;;;;;;5032488;28;20112;-77
2021/04/26 11:20:20;;;;;;;1.83;0.90;;;;;;;;;;5051761;28;20029;-77
2021/04/26 11:22:48;;;;;;;2.22;1.00;;;;;;;;;;5044051;28;20028;-76
2021/04/26 11:25:40;;;;;;;1.20;0.70;;;;;;;;;;5028504;28;20017;-74
2021/04/26 11:28:06;;;;;;;2.67;0.80;;;;;;;;;;5029062;28;20061;-74
2021/04/26 11:30:35;;;;;;;1.20;0.70;;;;;;;;;;5036227;28;20405;-75
2021/04/26 11:33:08;;;;;;;1.58;1.00;;;;;;;;;;5035839;28;20412;-75
2021/04/26 11:35:35;;;;;;;1.52;0.60;;;;;;;;;;5036462;28;20029;-76
2021/04/26 11:38:01;;;;;;;2.38;0.70;;;;;;;;;;5035661;28;20035;-75
2021/04/26 11:40:28;;;;;;;1.00;0.70;;;;;;;;;;5033607;28;20022;-75
2021/04/26 11:43:00;;;;;;;2.88;1.00;;;;;;;;;;5017988;28;20033;-75
2021/04/26 11:45:28;;;;;;;2.20;0.98;;;;;;;;;;5021962;28;20026;-76
2021/04/26 11:47:53;;;;;;;2.95;0.80;;;;;;;;;;5024847;28;20072;-75
2021/04/26 11:50:18;;;;;;;1.30;0.80;;;;;;;;;;5036325;28;20466;-76
2021/04/26 11:52:46;;;;;;;1.57;0.80;;;;;;;;;;5033024;28;20025;-76
2021/04/26 11:55:13;;;;;;;2.58;0.88;;;;;;;;;;5033008;28;20017;-75
2021/04/26 11:57:43;;;;;;;2.80;1.00;;;;;;;;;;5014256;28;20061;-76
2021/04/26 12:00:12;;;;;;;1.23;0.60;;;;;;;;;;5026662;28;20373;-77
2021/04/26 12:02:43;;;;;;;3.60;0.88;;;;;;;;;;5035950;28;20052;-79
2021/04/26 12:05:08;;;;;;;2.13;0.90;;;;;;;;;;5033500;28;20125;-79
2021/04/26 12:07:37;;;;;;;1.23;0.75;;;;;;;;;;5035748;28;20412;-78
2021/04/26 12:10:13;;;;;;;2.13;0.90;;;;;;;;;;5036150;28;20047;-78
2021/04/26 12:12:38;;;;;;;1.80;0.80;;;;;;;;;;5021093;28;20022;-77
2021/04/26 12:15:06;;;;;;;1.67;0.90;;;;;;;;;;5027159;28;20029;-78
2021/04/26 12:17:35;;;;;;;5.30;0.85;;;;;;;;;;5053079;28;20025;-79
2021/04/26 12:20:01;;;;;;;1.60;0.80;;;;;;;;;;5055966;28;20032;-76
2021/04/26 12:22:32;;;;;;;2.15;1.10;;;;;;;;;;5044709;28;20021;-78
2021/04/26 12:25:00;;;;;;;2.97;0.98;;;;;;;;;;5018853;28;20025;-78
2021/04/26 12:27:26;;;;;;;4.82;1.10;;;;;;;;;;5035169;28;20036;-76
2021/04/26 12:29:54;;;;;;;1.33;0.95;;;;;;;;;;5035278;28;20497;-78
2021/04/26 12:32:20;;;;;;;3.55;1.10;;;;;;;;;;5035267;28;20087;-77
2021/04/26 12:34:52;;;;;;;2.40;1.00;;;;;;;;;;5035519;28;20031;-78
2021/04/26 12:37:21;;;;;;;2.10;1.02;;;;;;;;;;5034242;28;20135;-76
2021/04/26 12:39:47;;;;;;;3.00;1.02;;;;;;;;;;5013572;28;20025;-78
2021/04/26 12:42:13;;;;;;;5.03;0.95;;;;;;;;;;5012123;28;20037;-78
2021/04/26 12:44:39;;;;;;;2.30;0.90;;;;;;;;;;5028888;28;20041;-77
2021/04/26 12:47:21;;;;;;;4.07;1.00;;;;;;;;;;5033717;28;20064;-77
2021/04/26 12:49:47;;;;;;;5.20;1.20;;;;;;;;;;5034982;28;20068;-77
2021/04/26 12:52:17;;;;;;;2.65;1.05;;;;;;;;;;5035282;28;20365;-77
2021/04/26 12:55:00;;;;;;;1.52;0.88;;;;;;;;;;5034804;28;20454;-76
2021/04/26 12:57:25;;;;;;;2.70;1.13;;;;;;;;;;5033822;28;20041;-78
2021/04/26 12:59:50;;;;;;;1.83;1.07;;;;;;;;;;5033762;28;20035;-77
2021/04/26 13:02:19;;;;;;;1.03;0.93;;;;;;;;;;5016693;28;20018;-78
2021/04/26 13:04:49;;;;;;;3.67;1.00;;;;;;;;;;5035097;28;20028;-76
2021/04/26 13:07:17;;;;;;;2.38;1.00;;;;;;;;;;5034262;28;20103;-77
2021/04/26 13:09:42;;;;;;;1.35;0.90;;;;;;;;;;5019121;28;20093;-77
2021/04/26 13:12:08;;;;;;;1.87;0.80;;;;;;;;;;5024919;28;20121;-77
2021/04/26 13:14:35;;;;;;;1.08;0.90;;;;;;;;;;5025500;28;20032;-77
2021/04/26 13:17:00;;;;;;;5.43;1.10;;;;;;;;;;5034498;28;20029;-77
2021/04/26 13:19:26;;;;;;;2.20;0.80;;;;;;;;;;5034103;28;20010;-77
2021/04/26 13:21:54;;;;;;;3.47;1.00;;;;;;;;;;5034245;28;20276;-78
2021/04/26 13:24:21;;;;;;;1.20;0.80;;;;;;;;;;5029751;28;20503;-77
2021/04/26 13:26:58;;;;;;;0.98;0.60;;;;;;;;;;5032021;28;20029;-78
2021/04/26 13:29:24;;;;;;;1.13;0.70;;;;;;;;;;5031037;28;20013;-76
2021/04/26 13:31:55;;;;;;;3.35;0.98;;;;;;;;;;5032663;28;20030;-77
2021/04/26 13:34:21;;;;;;;1.48;0.68;;;;;;;;;;5030260;28;20021;-77
2021/04/26 13:36:47;;;;;;;2.05;0.77;;;;;;;;;;5033441;28;20339;-78
2021/04/26 13:39:13;;;;;;;3.38;1.00;;;;;;;;;;5033463;28;20096;-76
2021/04/26 13:41:39;;;;;;;2.33;0.80;;;;;;;;;;5016003;28;20061;-77
2021/04/26 13:44:07;;;;;;;0.98;0.73;;;;;;;;;;5030972;28;20060;-76
2021/04/26 13:46:33;;;;;;;4.50;0.82;;;;;;;;;;5034609;28;20100;-76
2021/04/26 13:48:58;;;;;;;1.80;0.85;;;;;;;;;;5033533;28;20457;-76
2021/04/26 13:51:24;;;;;;;1.40;0.90;;;;;;;;;;5015275;28;20025;-76
2021/04/26 13:53:49;;;;;;;3.47;0.90;;;;;;;;;;5030675;28;20442;-76
2021/04/26 13:56:14;;;;;;;2.35;0.70;;;;;;;;;;5031967;28;20052;-76
2021/04/26 13:58:40;;;;;;;1.00;0.80;;;;;;;;;;5033558;28;20018;-76
2021/04/26 14:01:06;;;;;;;1.05;0.77;;;;;;;;;;5029858;28;20033;-77
2021/04/26 14:03:31;;;;;;;4.07;1.02;;;;;;;;;;5032932;28;20021;-76
2021/04/26 14:05:59;;;;;;;1.50;0.80;;;;;;;;;;5030255;28;20029;-76
2021/04/26 14:08:25;;;;;;;2.65;1.00;;;;;;;;;;5031535;28;20296;-74
2021/04/26 14:10:51;;;;;;;1.65;0.98;;;;;;;;;;5026503;28;20029;-74
2021/04/26 14:13:17;;;;;;;2.35;0.75;;;;;;;;;;5034303;28;20528;-74
2021/04/26 14:15:42;;;;;;;1.70;0.80;;;;;;;;;;5023826;28;20049;-74
2021/04/26 14:18:08;;;;;;;4.45;0.80;;;;;;;;;;5014289;28;20107;-74
2021/04/26 14:20:34;;;;;;;2.60;1.13;;;;;;;;;;5014130;28;20111;-74
2021/04/26 14:23:00;;;;;;;1.45;0.90;;;;;;;;;;5015529;28;20037;-74
2021/04/26 14:25:27;;;;;;;2.45;0.88;;;;;;;;;;5033052;28;20026;-76
2021/04/26 14:27:52;;;;;;;3.58;0.98;;;;;;;;;;5033255;28;20075;-75
2021/04/26 14:30:22;;;;;;;1.63;0.80;;;;;;;;;;5033656;28;20025;-75
2021/04/26 14:32:47;;;;;;;1.17;0.77;;;;;;;;;;5048414;28;20108;-75
2021/04/26 14:35:12;;;;;;;2.33;0.90;;;;;;;;;;5036443;28;20062;-76
2021/04/26 14:37:37;;;;;;;2.00;0.73;;;;;;;;;;5005559;28;20443;-76
2021/04/26 14:40:04;;;;;;;1.53;0.80;;;;;;;;;;5015650;28;20263;-75
2021/04/26 14:42:29;;;;;;;1.10;0.80;;;;;;;;;;5022771;28;20033;-76
2021/04/26 14:44:55;;;;;;;3.03;0.87;;;;;;;;;;5014009;28;20358;-76
2021/04/26 14:47:20;;;;;;;1.42;0.88;;;;;;;;;;5027425;28;20373;-78
2021/04/26 14:49:47;;;;;;;1.87;0.87;;;;;;;;;;5032871;28;20021;-78